createdAt,value
2023-05-22T00:01:56.502Z,100.00
2023-05-22T00:04:23.417Z,100.00
2023-05-22T00:06:50.229Z,100.00
2023-05-22T00:09:16.912Z,100.00
2023-05-22T00:11:43.802Z,100.00
2023-05-22T00:14:10.724Z,100.00
2023-05-22T00:16:37.565Z,100.00
2023-05-22T00:19:04.899Z,100.00
2023-05-22T00:21:35.076Z,100.00
2023-05-22T00:24:02.188Z,100.00
2023-05-22T00:26:29.163Z,100.00
2023-05-22T00:28:55.948Z,100.00
2023-05-22T00:31:23.341Z,100.00
2023-05-22T00:33:50.434Z,100.00
2023-05-22T00:36:18.573Z,100.00
2023-05-22T00:38:45.325Z,100.00
2023-05-22T00:41:12.040Z,100.00
2023-05-22T00:43:39.631Z,100.00
2023-05-22T00:46:11.170Z,100.00
2023-05-22T00:48:38.400Z,100.00
2023-05-22T00:51:07.727Z,100.00
2023-05-22T00:53:34.879Z,100.00
2023-05-22T00:56:01.889Z,100.00
2023-05-22T00:58:29.544Z,100.00
2023-05-22T01:00:56.894Z,100.00
2023-05-22T01:03:26.994Z,100.00
2023-05-22T01:05:55.080Z,100.00
2023-05-22T01:08:22.636Z,100.00
2023-05-22T01:10:56.996Z,100.00
2023-05-22T01:13:45.744Z,100.00
2023-05-22T01:16:25.102Z,100.00
2023-05-22T01:19:12.501Z,100.00
2023-05-22T01:22:06.841Z,100.00
2023-05-22T01:24:48.849Z,100.00
2023-05-22T01:27:35.183Z,100.00
2023-05-22T01:30:21.138Z,100.00
2023-05-22T01:32:49.730Z,100.00
2023-05-22T01:35:18.994Z,100.00
2023-05-22T01:37:46.838Z,100.00
2023-05-22T01:40:13.851Z,100.00
2023-05-22T01:42:41.273Z,100.00
2023-05-22T01:45:12.247Z,100.00
2023-05-22T01:47:39.038Z,100.00
2023-05-22T01:50:07.124Z,100.00
2023-05-22T01:52:43.869Z,100.00
2023-05-22T01:55:20.490Z,100.00
2023-05-22T01:58:03.082Z,100.00
2023-05-22T02:00:31.369Z,100.00
2023-05-22T02:03:04.486Z,100.00
2023-05-22T02:05:35.856Z,100.00
2023-05-22T02:08:04.385Z,100.00
2023-05-22T02:10:33.391Z,100.00
2023-05-22T02:13:01.609Z,100.00
2023-05-22T02:15:29.855Z,100.00
2023-05-22T02:18:00.366Z,100.00
2023-05-22T02:20:27.254Z,100.00
2023-05-22T02:22:53.928Z,100.00
2023-05-22T02:25:21.045Z,100.00
2023-05-22T02:27:49.518Z,100.00
2023-05-22T02:30:18.457Z,100.00
2023-05-22T02:32:49.132Z,100.00
2023-05-22T02:35:16.098Z,100.00
2023-05-22T02:37:42.816Z,100.00
2023-05-22T02:40:13.021Z,100.00
2023-05-22T02:42:39.753Z,100.00
2023-05-22T02:45:07.245Z,100.00
2023-05-22T02:47:34.110Z,100.00
2023-05-22T02:50:00.785Z,100.00
2023-05-22T02:52:28.283Z,100.00
2023-05-22T02:54:55.380Z,100.00
2023-05-22T02:57:22.847Z,100.00
2023-05-22T02:59:49.523Z,100.00
2023-05-22T03:02:16.606Z,100.00
2023-05-22T03:04:43.321Z,100.00
2023-05-22T03:07:10.099Z,100.00
2023-05-22T03:09:37.117Z,100.00
2023-05-22T03:12:07.596Z,100.00
2023-05-22T03:14:34.649Z,100.00
2023-05-22T03:17:01.439Z,100.00
2023-05-22T03:19:28.265Z,100.00
2023-05-22T03:21:55.904Z,100.00
2023-05-22T03:24:22.653Z,100.00
2023-05-22T03:26:49.456Z,100.00
2023-05-22T03:29:23.173Z,100.00
2023-05-22T03:31:50.150Z,100.00
2023-05-22T03:34:17.099Z,100.00
2023-05-22T03:36:46.880Z,100.00
2023-05-22T03:39:16.070Z,100.00
2023-05-22T03:41:51.664Z,100.00
2023-05-22T03:44:18.833Z,100.00
2023-05-22T03:46:46.134Z,100.00
2023-05-22T03:49:12.836Z,100.00
2023-05-22T03:51:39.515Z,100.00
2023-05-22T03:54:06.239Z,100.00
2023-05-22T03:56:32.802Z,100.00
2023-05-22T03:58:59.666Z,100.00
2023-05-22T04:01:27.202Z,100.00
2023-05-22T04:03:53.847Z,100.00
2023-05-22T04:06:23.541Z,100.00
2023-05-22T04:08:50.250Z,100.00
2023-05-22T04:11:17.006Z,100.00
2023-05-22T04:13:43.767Z,100.00
2023-05-22T04:16:10.913Z,100.00
2023-05-22T04:18:37.811Z,100.00
2023-05-22T04:21:08.191Z,100.00
2023-05-22T04:23:35.312Z,100.00
2023-05-22T04:26:04.538Z,100.00
2023-05-22T04:28:31.525Z,100.00
2023-05-22T04:30:58.221Z,100.00
2023-05-22T04:33:25.148Z,100.00
2023-05-22T04:35:51.999Z,100.00
2023-05-22T04:38:18.899Z,100.00
2023-05-22T04:40:45.550Z,100.00
2023-05-22T04:43:13.804Z,100.00
2023-05-22T04:45:42.319Z,100.00
2023-05-22T04:48:09.392Z,100.00
2023-05-22T04:50:38.936Z,100.00
2023-05-22T04:53:06.508Z,100.00
2023-05-22T04:55:34.127Z,100.00
2023-05-22T04:58:01.780Z,100.00
2023-05-22T05:00:29.429Z,100.00
2023-05-22T05:02:57.510Z,100.00
2023-05-22T05:05:24.951Z,100.00
2023-05-22T05:07:53.300Z,100.00
2023-05-22T05:10:20.165Z,100.00
2023-05-22T05:12:46.842Z,100.00
2023-05-22T05:15:13.621Z,100.00
2023-05-22T05:17:41.151Z,100.00
2023-05-22T05:20:08.847Z,100.00
2023-05-22T05:22:36.078Z,100.00
2023-05-22T05:25:05.708Z,100.00
2023-05-22T05:27:33.454Z,100.00
2023-05-22T05:30:01.934Z,100.00
2023-05-22T05:32:45.765Z,100.00
2023-05-22T05:35:23.632Z,100.00
2023-05-22T05:38:02.494Z,100.00
2023-05-22T05:40:33.608Z,100.00
2023-05-22T05:43:00.455Z,100.00
2023-05-22T05:45:28.968Z,100.00
2023-05-22T05:47:56.421Z,100.00
2023-05-22T05:50:24.075Z,100.00
2023-05-22T05:52:50.818Z,100.00
2023-05-22T05:55:19.335Z,100.00
2023-05-22T05:57:47.904Z,100.00
2023-05-22T06:00:22.564Z,100.00
2023-05-22T06:02:52.254Z,100.00
2023-05-22T06:05:39.111Z,100.00
2023-05-22T06:08:21.874Z,100.00
2023-05-22T06:10:49.566Z,100.00
2023-05-22T06:13:31.498Z,100.00
2023-05-22T06:16:01.692Z,100.00
2023-05-22T06:18:29.673Z,100.00
2023-05-22T06:20:59.146Z,100.00
2023-05-22T06:23:26.005Z,100.00
2023-05-22T06:25:55.586Z,100.00
2023-05-22T06:28:23.350Z,100.00
2023-05-22T06:30:50.271Z,100.00
2023-05-22T06:33:19.776Z,99.11
2023-05-22T06:35:46.580Z,96.52
2023-05-22T06:38:13.407Z,94.50
2023-05-22T06:40:42.331Z,95.00
2023-05-22T06:43:22.401Z,96.10
2023-05-22T06:45:53.951Z,95.26
2023-05-22T06:48:23.653Z,93.80
2023-05-22T06:51:20.720Z,94.73
2023-05-22T06:53:51.498Z,93.73
2023-05-22T06:56:22.914Z,94.79
2023-05-22T06:59:10.953Z,95.38
2023-05-22T07:01:56.729Z,94.96
2023-05-22T07:04:49.734Z,95.65
2023-05-22T07:07:21.569Z,96.09
2023-05-22T07:09:48.287Z,96.22
2023-05-22T07:12:15.639Z,95.21
2023-05-22T07:14:42.652Z,95.33
2023-05-22T07:17:09.534Z,95.85
2023-05-22T07:19:41.365Z,96.14
2023-05-22T07:22:08.772Z,97.24
2023-05-22T07:24:37.708Z,97.40
2023-05-22T07:27:05.974Z,97.19
2023-05-22T07:29:33.965Z,96.76
2023-05-22T07:32:01.946Z,96.69
2023-05-22T07:34:34.355Z,96.41
2023-05-22T07:37:08.971Z,95.54
2023-05-22T07:39:35.999Z,95.04
2023-05-22T07:42:04.736Z,94.06
2023-05-22T07:44:34.629Z,93.07
2023-05-22T07:47:01.542Z,89.36
2023-05-22T07:49:29.730Z,88.18
2023-05-22T07:51:56.544Z,88.41
2023-05-22T07:54:25.519Z,89.48
2023-05-22T07:56:52.895Z,90.58
2023-05-22T07:59:21.672Z,89.48
2023-05-22T08:01:48.382Z,87.82
2023-05-22T08:04:15.415Z,86.57
2023-05-22T08:06:43.924Z,87.86
2023-05-22T08:09:10.820Z,87.56
2023-05-22T08:11:40.205Z,87.43
2023-05-22T08:14:07.692Z,87.43
2023-05-22T08:16:35.095Z,88.15
2023-05-22T08:19:02.063Z,89.00
2023-05-22T08:21:28.889Z,90.66
2023-05-22T08:23:55.728Z,92.98
2023-05-22T08:26:25.480Z,94.31
2023-05-22T08:28:52.416Z,92.28
2023-05-22T08:31:19.249Z,91.30
2023-05-22T08:33:46.149Z,90.20
2023-05-22T08:36:13.405Z,90.55
2023-05-22T08:38:41.187Z,91.47
2023-05-22T08:41:08.938Z,92.01
2023-05-22T08:43:35.907Z,91.35
2023-05-22T08:46:09.067Z,92.28
2023-05-22T08:48:35.971Z,91.63
2023-05-22T08:51:05.212Z,88.75
2023-05-22T08:53:36.335Z,87.62
2023-05-22T08:56:05.583Z,85.95
2023-05-22T08:58:36.825Z,85.12
2023-05-22T09:01:05.336Z,83.19
2023-05-22T09:03:35.237Z,81.44
2023-05-22T09:06:02.302Z,80.24
2023-05-22T09:08:29.076Z,80.38
2023-05-22T09:10:56.340Z,75.77
2023-05-22T09:13:32.097Z,74.29
2023-05-22T09:16:00.895Z,74.27
2023-05-22T09:18:29.149Z,75.63
2023-05-22T09:20:59.861Z,77.33
2023-05-22T09:23:28.154Z,74.02
2023-05-22T09:25:56.807Z,72.40
2023-05-22T09:28:24.485Z,71.58
2023-05-22T09:30:52.713Z,72.98
2023-05-22T09:33:20.304Z,71.58
2023-05-22T09:35:47.291Z,71.60
2023-05-22T09:38:14.249Z,71.72
2023-05-22T09:40:42.220Z,74.10
2023-05-22T09:43:10.575Z,76.44
2023-05-22T09:45:38.390Z,76.46
2023-05-22T09:48:06.316Z,74.72
2023-05-22T09:50:33.056Z,72.77
2023-05-22T09:53:05.039Z,73.27
2023-05-22T09:55:32.234Z,76.42
2023-05-22T09:58:03.151Z,77.47
2023-05-22T10:00:34.184Z,76.90
2023-05-22T10:03:12.733Z,75.24
2023-05-22T10:05:47.447Z,75.80
2023-05-22T10:08:17.643Z,76.29
2023-05-22T10:10:50.009Z,75.06
2023-05-22T10:13:17.231Z,74.22
2023-05-22T10:15:44.210Z,74.28
2023-05-22T10:18:11.834Z,73.44
2023-05-22T10:20:39.742Z,74.00
2023-05-22T10:23:08.051Z,74.47
2023-05-22T10:25:37.746Z,75.02
2023-05-22T10:28:06.401Z,74.44
2023-05-22T10:30:56.739Z,72.19
2023-05-22T10:33:32.099Z,70.94
2023-05-22T10:36:08.928Z,69.90
2023-05-22T10:38:46.899Z,70.84
2023-05-22T10:41:13.954Z,71.76
2023-05-22T10:43:44.372Z,70.76
2023-05-22T10:46:12.827Z,70.12
2023-05-22T10:48:41.439Z,71.31
2023-05-22T10:51:08.922Z,71.56
2023-05-22T10:53:36.245Z,71.84
2023-05-22T10:56:18.572Z,71.12
2023-05-22T10:58:56.755Z,71.84
2023-05-22T11:01:26.315Z,72.05
2023-05-22T11:04:02.008Z,72.83
2023-05-22T11:06:42.009Z,70.74
2023-05-22T11:09:32.174Z,69.59
2023-05-22T11:12:21.416Z,70.25
2023-05-22T11:14:50.121Z,70.60
2023-05-22T11:17:19.673Z,70.23
2023-05-22T11:20:05.573Z,68.19
2023-05-22T11:22:37.551Z,68.83
2023-05-22T11:25:08.024Z,67.78
2023-05-22T11:27:36.463Z,67.57
2023-05-22T11:30:04.335Z,67.66
2023-05-22T11:32:31.307Z,68.66
2023-05-22T11:34:58.025Z,68.53
2023-05-22T11:37:24.762Z,67.78
2023-05-22T11:39:56.563Z,67.72
2023-05-22T11:42:23.322Z,68.72
2023-05-22T11:44:50.234Z,66.84
2023-05-22T11:47:17.221Z,66.74
2023-05-22T11:49:44.405Z,67.30
2023-05-22T11:52:11.320Z,66.98
2023-05-22T11:54:38.961Z,65.94
2023-05-22T11:57:09.636Z,66.28
2023-05-22T11:59:36.283Z,66.66
2023-05-22T12:02:03.036Z,66.94
2023-05-22T12:04:30.284Z,64.94
2023-05-22T12:06:57.353Z,65.39
2023-05-22T12:09:24.483Z,65.33
2023-05-22T12:11:51.157Z,63.49
2023-05-22T12:14:17.824Z,63.01
2023-05-22T12:16:44.759Z,61.01
2023-05-22T12:19:12.262Z,60.52
2023-05-22T12:21:39.525Z,60.30
2023-05-22T12:24:06.479Z,60.63
2023-05-22T12:26:33.260Z,61.43
2023-05-22T12:29:00.137Z,61.81
2023-05-22T12:31:38.892Z,63.21
2023-05-22T12:34:09.010Z,63.60
2023-05-22T12:36:39.352Z,64.26
2023-05-22T12:39:17.719Z,62.93
2023-05-22T12:41:47.257Z,63.32
2023-05-22T12:44:16.588Z,63.03
2023-05-22T12:46:43.514Z,63.15
2023-05-22T12:49:11.050Z,62.13
2023-05-22T12:51:37.807Z,61.84
2023-05-22T12:54:05.111Z,62.00
2023-05-22T12:56:32.347Z,62.23
2023-05-22T12:58:59.143Z,61.74
2023-05-22T13:01:26.493Z,62.21
2023-05-22T13:03:53.501Z,61.93
2023-05-22T13:06:20.749Z,61.88
2023-05-22T13:08:47.319Z,60.93
2023-05-22T13:11:14.130Z,60.88
2023-05-22T13:13:40.767Z,59.71
2023-05-22T13:16:10.199Z,59.80
2023-05-22T13:18:36.843Z,59.45
2023-05-22T13:21:03.881Z,60.01
2023-05-22T13:23:30.839Z,59.93
2023-05-22T13:25:57.799Z,59.25
2023-05-22T13:28:24.583Z,59.77
2023-05-22T13:30:51.271Z,60.21
2023-05-22T13:36:01.144Z,60.49
2023-05-22T13:38:28.161Z,59.60
2023-05-22T13:40:54.877Z,62.23
2023-05-22T13:43:21.646Z,61.62
2023-05-22T13:45:48.428Z,60.35
2023-05-22T13:48:16.049Z,60.71
2023-05-22T13:50:42.956Z,59.77
2023-05-22T13:53:28.144Z,61.73
2023-05-22T13:55:55.222Z,62.45
2023-05-22T13:58:21.890Z,62.89
2023-05-22T14:00:50.032Z,62.58
2023-05-22T14:03:19.844Z,63.04
2023-05-22T14:05:46.625Z,63.19
2023-05-22T14:08:13.505Z,63.21
2023-05-22T14:10:40.478Z,63.75
2023-05-22T14:13:08.832Z,64.13
2023-05-22T14:15:38.354Z,63.48
2023-05-22T14:18:05.199Z,64.70
2023-05-22T14:20:32.039Z,64.11
2023-05-22T14:22:58.811Z,64.38
2023-05-22T14:25:26.301Z,64.19
2023-05-22T14:27:53.294Z,64.10
2023-05-22T14:30:20.097Z,65.21
2023-05-22T14:32:46.910Z,65.95
2023-05-22T14:35:14.360Z,66.47
2023-05-22T14:37:41.077Z,65.39
2023-05-22T14:40:08.546Z,64.51
2023-05-22T14:42:36.268Z,64.26
2023-05-22T14:45:04.089Z,63.50
2023-05-22T14:47:31.013Z,64.16
2023-05-22T14:50:10.247Z,64.34
2023-05-22T14:52:45.415Z,62.88
2023-05-22T14:55:12.105Z,63.46
2023-05-22T14:57:38.823Z,63.42
2023-05-22T15:00:06.854Z,64.26
2023-05-22T15:02:33.800Z,64.83
2023-05-22T15:05:00.685Z,65.14
2023-05-22T15:07:35.987Z,64.86
2023-05-22T15:10:10.734Z,64.91
2023-05-22T15:12:37.536Z,64.58
2023-05-22T15:15:04.596Z,64.36
2023-05-22T15:17:31.293Z,63.18
2023-05-22T15:19:57.991Z,63.53
2023-05-22T15:22:24.776Z,63.40
2023-05-22T15:25:06.343Z,62.42
2023-05-22T15:27:35.040Z,62.67
2023-05-22T15:30:02.627Z,63.17
2023-05-22T15:32:30.621Z,62.57
2023-05-22T15:34:57.384Z,62.38
2023-05-22T15:37:24.123Z,62.64
2023-05-22T15:39:51.019Z,62.42
2023-05-22T15:42:17.676Z,62.51
2023-05-22T15:44:44.292Z,63.92
2023-05-22T15:47:11.196Z,64.06
2023-05-22T15:49:38.159Z,64.29
2023-05-22T15:52:05.124Z,64.62
2023-05-22T15:54:31.784Z,64.75
2023-05-22T15:56:58.594Z,65.08
2023-05-22T15:59:25.375Z,65.43
2023-05-22T16:01:52.725Z,65.61
2023-05-22T16:04:19.583Z,66.32
2023-05-22T16:06:46.329Z,67.44
2023-05-22T16:09:13.100Z,66.83
2023-05-22T16:11:39.732Z,67.04
2023-05-22T16:14:06.455Z,67.28
2023-05-22T16:16:35.319Z,67.61
2023-05-22T16:19:02.014Z,67.91
2023-05-22T16:21:29.136Z,68.14
2023-05-22T16:23:58.162Z,68.34
2023-05-22T16:26:24.884Z,67.86
2023-05-22T16:28:51.533Z,68.54
2023-05-22T16:31:19.863Z,68.92
2023-05-22T16:33:46.849Z,68.04
2023-05-22T16:36:13.841Z,68.03
2023-05-22T16:38:40.685Z,67.33
2023-05-22T16:41:07.364Z,67.19
2023-05-22T16:43:36.595Z,67.21
2023-05-22T16:46:03.419Z,67.01
2023-05-22T16:48:30.257Z,67.72
2023-05-22T16:50:56.986Z,67.30
2023-05-22T16:53:23.780Z,67.32
2023-05-22T16:55:50.474Z,67.33
2023-05-22T16:58:17.180Z,66.88
2023-05-22T17:00:43.894Z,66.64
2023-05-22T17:03:11.951Z,65.52
2023-05-22T17:05:42.319Z,65.56
2023-05-22T17:08:09.572Z,64.95
2023-05-22T17:10:36.273Z,64.32
2023-05-22T17:13:02.915Z,64.34
2023-05-22T17:15:29.661Z,63.71
2023-05-22T17:17:56.582Z,64.59
2023-05-22T17:20:24.784Z,64.55
2023-05-22T17:22:52.412Z,64.00
2023-05-22T17:25:19.203Z,60.54
2023-05-22T17:27:46.490Z,58.81
2023-05-22T17:30:13.351Z,58.47
2023-05-22T17:32:40.226Z,57.89
2023-05-22T17:35:07.731Z,56.52
2023-05-22T17:37:36.245Z,55.84
2023-05-22T17:40:03.972Z,55.09
2023-05-22T17:42:30.626Z,54.91
2023-05-22T17:44:57.371Z,55.23
2023-05-22T17:47:23.999Z,54.78
2023-05-22T17:49:50.930Z,55.38
2023-05-22T17:52:17.571Z,55.42
2023-05-22T17:54:44.318Z,53.83
2023-05-22T17:57:11.765Z,54.61
2023-05-22T17:59:40.295Z,54.11
2023-05-22T18:02:08.885Z,55.03
2023-05-22T18:04:36.310Z,56.48
2023-05-22T18:07:02.933Z,56.93
2023-05-22T18:09:29.602Z,57.00
2023-05-22T18:11:56.286Z,57.11
2023-05-22T18:14:22.988Z,57.18
2023-05-22T18:16:49.760Z,58.04
2023-05-22T18:19:16.439Z,58.74
2023-05-22T18:21:43.243Z,59.19
2023-05-22T18:24:09.983Z,59.61
2023-05-22T18:26:37.739Z,60.04
2023-05-22T18:29:04.461Z,59.81
2023-05-22T18:31:31.303Z,61.67
2023-05-22T18:33:58.064Z,63.47
2023-05-22T18:36:24.839Z,64.80
2023-05-22T18:38:51.546Z,66.77
2023-05-22T18:41:18.191Z,67.23
2023-05-22T18:43:44.892Z,67.61
2023-05-22T18:46:11.607Z,68.42
2023-05-22T18:48:38.302Z,68.63
2023-05-22T18:51:56.269Z,68.50
2023-05-22T18:54:36.888Z,69.26
2023-05-22T18:57:19.529Z,70.47
2023-05-22T18:59:49.689Z,71.76
2023-05-22T19:02:16.989Z,73.21
2023-05-22T19:04:44.044Z,73.89
2023-05-22T19:07:10.885Z,74.42
2023-05-22T19:09:37.700Z,75.43
2023-05-22T19:12:07.638Z,75.37
2023-05-22T19:14:34.242Z,76.13
2023-05-22T19:17:00.902Z,76.98
2023-05-22T19:19:27.682Z,77.77
2023-05-22T19:21:54.478Z,78.25
2023-05-22T19:24:22.512Z,78.95
2023-05-22T19:26:49.152Z,80.04
2023-05-22T19:29:15.872Z,80.67
2023-05-22T19:31:42.645Z,80.73
2023-05-22T19:34:09.334Z,81.66
2023-05-22T19:36:56.428Z,82.15
2023-05-22T19:39:31.351Z,82.78
2023-05-22T19:41:58.026Z,84.25
2023-05-22T19:44:24.717Z,85.28
2023-05-22T19:46:51.636Z,85.62
2023-05-22T19:49:18.883Z,86.40
2023-05-22T19:51:46.238Z,87.16
2023-05-22T19:54:12.903Z,87.76
2023-05-22T19:56:39.809Z,88.15
2023-05-22T19:59:06.629Z,88.98
2023-05-22T20:01:33.493Z,89.65
2023-05-22T20:04:01.080Z,90.51
2023-05-22T20:06:31.564Z,90.05
2023-05-22T20:08:58.380Z,91.25
2023-05-22T20:11:25.079Z,91.20
2023-05-22T20:13:54.397Z,91.44
2023-05-22T20:16:21.302Z,91.77
2023-05-22T20:18:48.852Z,92.17
2023-05-22T20:21:15.541Z,93.65
2023-05-22T20:23:42.164Z,93.94
2023-05-22T20:26:08.733Z,94.49
2023-05-22T20:28:35.374Z,94.63
2023-05-22T20:31:02.207Z,95.55
2023-05-22T20:33:29.085Z,95.70
2023-05-22T20:35:55.848Z,95.15
2023-05-22T20:38:22.666Z,95.90
2023-05-22T20:40:49.583Z,96.41
2023-05-22T20:43:18.580Z,96.37
2023-05-22T20:45:45.770Z,96.52
2023-05-22T20:48:13.650Z,98.05
2023-05-22T20:50:42.149Z,97.72
2023-05-22T20:53:08.835Z,98.80
2023-05-22T20:55:35.741Z,99.26
2023-05-22T20:58:02.323Z,99.52
2023-05-22T21:00:30.109Z,99.95
2023-05-22T21:02:58.347Z,99.95
2023-05-22T21:05:26.340Z,100.00
2023-05-22T21:07:53.471Z,100.00
2023-05-22T21:10:22.678Z,100.00
2023-05-22T21:12:49.274Z,100.00
2023-05-22T21:15:16.292Z,100.00
2023-05-22T21:17:45.785Z,100.00
2023-05-22T21:20:12.766Z,100.00
2023-05-22T21:22:39.830Z,100.00
2023-05-22T21:25:07.129Z,100.00
2023-05-22T21:27:33.696Z,100.00
2023-05-22T21:30:00.523Z,100.00
2023-05-22T21:32:27.138Z,100.00
2023-05-22T21:34:53.978Z,100.00
2023-05-22T21:37:20.588Z,100.00
2023-05-22T21:39:47.222Z,100.00
2023-05-22T21:42:16.217Z,100.00
2023-05-22T21:44:43.037Z,100.00
2023-05-22T21:47:10.181Z,100.00
2023-05-22T21:49:39.434Z,100.00
2023-05-22T21:52:06.382Z,100.00
2023-05-22T21:54:33.121Z,100.00
2023-05-22T21:56:59.802Z,100.00
2023-05-22T21:59:26.615Z,100.00
2023-05-22T22:01:53.318Z,100.00
2023-05-22T22:04:20.307Z,100.00
2023-05-22T22:06:46.983Z,100.00
2023-05-22T22:09:13.665Z,100.00
2023-05-22T22:11:40.258Z,100.00
2023-05-22T22:14:07.677Z,100.00
2023-05-22T22:16:36.049Z,100.00
2023-05-22T22:19:03.363Z,100.00
2023-05-22T22:21:30.559Z,100.00
2023-05-22T22:23:57.635Z,100.00
2023-05-22T22:26:24.287Z,100.00
2023-05-22T22:28:51.448Z,100.00
2023-05-22T22:31:18.309Z,100.00
2023-05-22T22:33:45.128Z,100.00
2023-05-22T22:36:11.723Z,100.00
2023-05-22T22:38:38.597Z,100.00
2023-05-22T22:41:08.517Z,100.00
2023-05-22T22:43:36.118Z,100.00
2023-05-22T22:46:02.778Z,100.00
2023-05-22T22:48:29.611Z,100.00
2023-05-22T22:50:56.300Z,100.00
2023-05-22T22:53:22.943Z,100.00
2023-05-22T22:55:54.772Z,100.00
2023-05-22T22:58:21.692Z,100.00
2023-05-22T23:00:48.616Z,100.00
2023-05-22T23:03:15.579Z,100.00
2023-05-22T23:05:42.975Z,100.00
2023-05-22T23:08:09.824Z,100.00
2023-05-22T23:10:36.428Z,100.00
2023-05-22T23:13:03.146Z,100.00
2023-05-22T23:15:30.093Z,100.00
2023-05-22T23:17:56.925Z,100.00
2023-05-22T23:20:23.716Z,100.00
2023-05-22T23:22:51.143Z,100.00
2023-05-22T23:25:17.963Z,100.00
2023-05-22T23:27:44.603Z,100.00
2023-05-22T23:30:11.847Z,100.00
2023-05-22T23:32:38.524Z,100.00
2023-05-22T23:35:05.774Z,100.00
2023-05-22T23:37:32.402Z,100.00
2023-05-22T23:39:59.276Z,100.00
2023-05-22T23:42:26.020Z,100.00
2023-05-22T23:44:52.652Z,100.00
2023-05-22T23:47:19.311Z,100.00
2023-05-22T23:49:46.037Z,100.00
2023-05-22T23:52:13.181Z,100.00
2023-05-22T23:54:39.806Z,100.00
2023-05-22T23:57:06.490Z,100.00
2023-05-22T23:59:33.263Z,100.00
